sensor_id;sensor_type;location;lat;lon;timestamp;pressure;altitude;pressure_sealevel;temperature;humidity
48882;BME280;57063;51.406;-2.402;2022-09-09T00:04:29;99280.06;;;19.08;100.00
48882;BME280;57063;51.406;-2.402;2022-09-09T00:15:12;99293.25;;;19.01;100.00
48882;BME280;57063;51.406;-2.402;2022-09-09T00:17:58;99285.03;;;18.96;100.00
48882;BME280;57063;51.406;-2.402;2022-09-09T00:20:52;99294.53;;;19.20;100.00
48882;BME280;57063;51.406;-2.402;2022-09-09T00:23:29;99292.38;;;19.30;100.00
48882;BME280;57063;51.406;-2.402;2022-09-09T00:26:30;99294.13;;;19.23;100.00
48882;BME280;57063;51.406;-2.402;2022-09-09T00:29:05;99303.38;;;19.06;100.00
48882;BME280;57063;51.406;-2.402;2022-09-09T00:31:35;99295.16;;;19.22;100.00
48882;BME280;57063;51.406;-2.402;2022-09-09T00:36:38;99301.88;;;19.03;100.00
48882;BME280;57063;51.406;-2.402;2022-09-09T00:39:03;99297.88;;;18.92;100.00
48882;BME280;57063;51.406;-2.402;2022-09-09T00:44:11;99298.88;;;18.91;100.00
48882;BME280;57063;51.406;-2.402;2022-09-09T00:49:27;99308.88;;;18.89;100.00
48882;BME280;57063;51.406;-2.402;2022-09-09T00:57:29;99295.38;;;19.42;100.00
48882;BME280;57063;51.406;-2.402;2022-09-09T01:00:20;99304.75;;;19.38;100.00
48882;BME280;57063;51.406;-2.402;2022-09-09T01:03:11;99311.03;;;19.15;100.00
48882;BME280;57063;51.406;-2.402;2022-09-09T01:11:12;99318.78;;;18.95;100.00
48882;BME280;57063;51.406;-2.402;2022-09-09T01:13:41;99315.47;;;19.08;100.00
48882;BME280;57063;51.406;-2.402;2022-09-09T01:16:10;99320.53;;;18.88;100.00
48882;BME280;57063;51.406;-2.402;2022-09-09T01:18:48;99320.09;;;19.21;100.00
48882;BME280;57063;51.406;-2.402;2022-09-09T01:21:48;99316.63;;;19.20;100.00
48882;BME280;57063;51.406;-2.402;2022-09-09T01:24:38;99314.34;;;19.17;100.00
48882;BME280;57063;51.406;-2.402;2022-09-09T01:27:06;99320.16;;;18.91;100.00
48882;BME280;57063;51.406;-2.402;2022-09-09T01:29:33;99317.66;;;18.75;100.00
48882;BME280;57063;51.406;-2.402;2022-09-09T01:32:00;99312.59;;;18.50;100.00
48882;BME280;57063;51.406;-2.402;2022-09-09T01:34:36;99324.25;;;18.64;100.00
48882;BME280;57063;51.406;-2.402;2022-09-09T01:37:08;99327.00;;;18.56;100.00
48882;BME280;57063;51.406;-2.402;2022-09-09T01:39:37;99331.66;;;18.54;100.00
48882;BME280;57063;51.406;-2.402;2022-09-09T01:42:05;99335.53;;;18.51;100.00
48882;BME280;57063;51.406;-2.402;2022-09-09T01:44:31;99343.03;;;18.48;100.00
48882;BME280;57063;51.406;-2.402;2022-09-09T01:46:58;99340.38;;;18.48;100.00
48882;BME280;57063;51.406;-2.402;2022-09-09T01:49:23;99340.75;;;18.59;100.00
48882;BME280;57063;51.406;-2.402;2022-09-09T01:51:52;99347.09;;;18.58;100.00
48882;BME280;57063;51.406;-2.402;2022-09-09T01:54:20;99348.94;;;18.73;100.00
48882;BME280;57063;51.406;-2.402;2022-09-09T01:59:41;99350.09;;;18.40;100.00
48882;BME280;57063;51.406;-2.402;2022-09-09T02:04:49;99349.75;;;18.20;100.00
48882;BME280;57063;51.406;-2.402;2022-09-09T02:07:59;99351.41;;;18.21;100.00
48882;BME280;57063;51.406;-2.402;2022-09-09T02:10:20;99354.06;;;17.83;100.00
48882;BME280;57063;51.406;-2.402;2022-09-09T02:12:50;99350.84;;;17.88;100.00
48882;BME280;57063;51.406;-2.402;2022-09-09T02:15:34;99350.44;;;17.99;100.00
48882;BME280;57063;51.406;-2.402;2022-09-09T02:18:04;99350.50;;;17.91;100.00
48882;BME280;57063;51.406;-2.402;2022-09-09T02:20:33;99357.28;;;17.94;100.00
48882;BME280;57063;51.406;-2.402;2022-09-09T02:23:00;99355.19;;;17.89;100.00
48882;BME280;57063;51.406;-2.402;2022-09-09T02:25:28;99359.38;;;17.75;100.00
48882;BME280;57063;51.406;-2.402;2022-09-09T02:27:56;99364.00;;;18.04;100.00
48882;BME280;57063;51.406;-2.402;2022-09-09T02:30:24;99373.22;;;17.62;100.00
48882;BME280;57063;51.406;-2.402;2022-09-09T02:32:52;99372.56;;;17.92;100.00
48882;BME280;57063;51.406;-2.402;2022-09-09T02:35:23;99371.44;;;18.09;100.00
48882;BME280;57063;51.406;-2.402;2022-09-09T02:37:51;99365.78;;;18.12;100.00
48882;BME280;57063;51.406;-2.402;2022-09-09T02:40:18;99369.84;;;18.23;100.00
48882;BME280;57063;51.406;-2.402;2022-09-09T02:42:45;99367.31;;;18.07;100.00
48882;BME280;57063;51.406;-2.402;2022-09-09T02:45:13;99363.91;;;17.98;100.00
48882;BME280;57063;51.406;-2.402;2022-09-09T02:50:38;99373.63;;;18.06;100.00
48882;BME280;57063;51.406;-2.402;2022-09-09T02:53:23;99371.25;;;18.11;100.00
48882;BME280;57063;51.406;-2.402;2022-09-09T02:58:24;99369.78;;;17.85;100.00
48882;BME280;57063;51.406;-2.402;2022-09-09T03:00:51;99368.09;;;18.15;100.00
48882;BME280;57063;51.406;-2.402;2022-09-09T03:03:16;99381.28;;;18.23;100.00
48882;BME280;57063;51.406;-2.402;2022-09-09T03:05:43;99384.13;;;18.22;100.00
48882;BME280;57063;51.406;-2.402;2022-09-09T03:08:09;99380.94;;;18.27;100.00
48882;BME280;57063;51.406;-2.402;2022-09-09T03:10:35;99384.53;;;18.34;100.00
48882;BME280;57063;51.406;-2.402;2022-09-09T03:13:02;99400.00;;;18.30;100.00
48882;BME280;57063;51.406;-2.402;2022-09-09T03:15:29;99405.03;;;18.25;100.00
48882;BME280;57063;51.406;-2.402;2022-09-09T03:17:56;99409.22;;;18.19;100.00
48882;BME280;57063;51.406;-2.402;2022-09-09T03:20:26;99408.22;;;18.20;100.00
48882;BME280;57063;51.406;-2.402;2022-09-09T03:22:53;99408.91;;;18.37;100.00
48882;BME280;57063;51.406;-2.402;2022-09-09T03:25:19;99406.59;;;18.34;100.00
48882;BME280;57063;51.406;-2.402;2022-09-09T03:27:44;99402.31;;;18.33;100.00
48882;BME280;57063;51.406;-2.402;2022-09-09T03:30:10;99408.91;;;18.37;100.00
48882;BME280;57063;51.406;-2.402;2022-09-09T03:32:36;99401.75;;;18.38;100.00
48882;BME280;57063;51.406;-2.402;2022-09-09T03:35:01;99403.84;;;18.28;100.00
48882;BME280;57063;51.406;-2.402;2022-09-09T03:37:27;99398.19;;;18.31;100.00
48882;BME280;57063;51.406;-2.402;2022-09-09T03:39:52;99401.47;;;18.33;100.00
48882;BME280;57063;51.406;-2.402;2022-09-09T03:42:20;99410.59;;;18.38;100.00
48882;BME280;57063;51.406;-2.402;2022-09-09T03:44:46;99418.19;;;18.41;100.00
48882;BME280;57063;51.406;-2.402;2022-09-09T03:47:16;99419.38;;;18.39;100.00
48882;BME280;57063;51.406;-2.402;2022-09-09T03:49:42;99409.16;;;18.28;100.00
48882;BME280;57063;51.406;-2.402;2022-09-09T03:52:08;99419.06;;;18.34;100.00
48882;BME280;57063;51.406;-2.402;2022-09-09T03:54:34;99420.13;;;18.48;100.00
48882;BME280;57063;51.406;-2.402;2022-09-09T03:57:00;99417.59;;;18.54;100.00
48882;BME280;57063;51.406;-2.402;2022-09-09T03:59:25;99416.31;;;18.65;100.00
48882;BME280;57063;51.406;-2.402;2022-09-09T04:01:51;99423.00;;;18.61;100.00
48882;BME280;57063;51.406;-2.402;2022-09-09T04:04:17;99426.84;;;18.58;100.00
48882;BME280;57063;51.406;-2.402;2022-09-09T04:06:42;99431.31;;;18.58;100.00
48882;BME280;57063;51.406;-2.402;2022-09-09T04:09:07;99438.47;;;18.57;100.00
48882;BME280;57063;51.406;-2.402;2022-09-09T04:11:33;99430.16;;;18.60;100.00
48882;BME280;57063;51.406;-2.402;2022-09-09T04:13:59;99428.41;;;18.30;100.00
48882;BME280;57063;51.406;-2.402;2022-09-09T04:16:24;99436.19;;;18.31;100.00
48882;BME280;57063;51.406;-2.402;2022-09-09T04:18:49;99439.63;;;18.17;100.00
48882;BME280;57063;51.406;-2.402;2022-09-09T04:21:15;99432.53;;;18.32;100.00
48882;BME280;57063;51.406;-2.402;2022-09-09T04:23:41;99436.13;;;18.39;100.00
48882;BME280;57063;51.406;-2.402;2022-09-09T04:26:06;99431.72;;;18.32;100.00
48882;BME280;57063;51.406;-2.402;2022-09-09T04:28:34;99438.16;;;18.37;100.00
48882;BME280;57063;51.406;-2.402;2022-09-09T04:31:20;99428.25;;;18.46;100.00
48882;BME280;57063;51.406;-2.402;2022-09-09T04:33:49;99444.59;;;18.43;100.00
48882;BME280;57063;51.406;-2.402;2022-09-09T04:36:14;99439.53;;;18.48;100.00
48882;BME280;57063;51.406;-2.402;2022-09-09T04:38:40;99445.78;;;18.40;100.00
48882;BME280;57063;51.406;-2.402;2022-09-09T04:41:05;99449.34;;;18.48;100.00
48882;BME280;57063;51.406;-2.402;2022-09-09T04:43:31;99444.72;;;18.27;100.00
48882;BME280;57063;51.406;-2.402;2022-09-09T04:45:57;99447.72;;;18.47;100.00
48882;BME280;57063;51.406;-2.402;2022-09-09T04:48:24;99447.97;;;18.52;100.00
48882;BME280;57063;51.406;-2.402;2022-09-09T04:51:02;99444.34;;;18.53;100.00
48882;BME280;57063;51.406;-2.402;2022-09-09T04:53:27;99451.75;;;18.57;100.00
48882;BME280;57063;51.406;-2.402;2022-09-09T04:56:21;99456.34;;;18.49;100.00
48882;BME280;57063;51.406;-2.402;2022-09-09T04:58:46;99458.44;;;18.53;100.00
48882;BME280;57063;51.406;-2.402;2022-09-09T05:01:17;99459.09;;;18.55;100.00
48882;BME280;57063;51.406;-2.402;2022-09-09T05:03:43;99464.31;;;18.26;100.00
48882;BME280;57063;51.406;-2.402;2022-09-09T05:06:18;99463.53;;;18.40;100.00
48882;BME280;57063;51.406;-2.402;2022-09-09T05:08:44;99459.69;;;17.96;100.00
48882;BME280;57063;51.406;-2.402;2022-09-09T05:11:17;99469.63;;;18.26;100.00
48882;BME280;57063;51.406;-2.402;2022-09-09T05:13:44;99467.09;;;18.09;100.00
48882;BME280;57063;51.406;-2.402;2022-09-09T05:16:10;99464.53;;;18.16;100.00
48882;BME280;57063;51.406;-2.402;2022-09-09T05:18:39;99475.69;;;18.11;100.00
48882;BME280;57063;51.406;-2.402;2022-09-09T05:21:04;99477.16;;;18.14;100.00
48882;BME280;57063;51.406;-2.402;2022-09-09T05:23:32;99475.28;;;18.22;100.00
48882;BME280;57063;51.406;-2.402;2022-09-09T05:25:58;99478.31;;;18.19;100.00
48882;BME280;57063;51.406;-2.402;2022-09-09T05:28:24;99477.41;;;18.04;100.00
48882;BME280;57063;51.406;-2.402;2022-09-09T05:31:04;99475.72;;;17.72;100.00
48882;BME280;57063;51.406;-2.402;2022-09-09T05:33:31;99485.75;;;17.93;100.00
48882;BME280;57063;51.406;-2.402;2022-09-09T05:36:11;99483.53;;;17.65;100.00
48882;BME280;57063;51.406;-2.402;2022-09-09T05:38:40;99485.41;;;17.96;100.00
48882;BME280;57063;51.406;-2.402;2022-09-09T05:41:06;99493.34;;;18.04;100.00
48882;BME280;57063;51.406;-2.402;2022-09-09T05:43:33;99484.94;;;17.92;100.00
48882;BME280;57063;51.406;-2.402;2022-09-09T05:46:06;99492.38;;;17.97;100.00
48882;BME280;57063;51.406;-2.402;2022-09-09T05:48:37;99506.28;;;17.99;100.00
48882;BME280;57063;51.406;-2.402;2022-09-09T05:51:04;99499.44;;;18.13;100.00
48882;BME280;57063;51.406;-2.402;2022-09-09T05:53:30;99503.56;;;18.15;100.00
48882;BME280;57063;51.406;-2.402;2022-09-09T05:56:04;99516.19;;;18.36;100.00
48882;BME280;57063;51.406;-2.402;2022-09-09T05:58:34;99512.72;;;18.36;100.00
48882;BME280;57063;51.406;-2.402;2022-09-09T06:01:10;99520.53;;;18.37;100.00
48882;BME280;57063;51.406;-2.402;2022-09-09T06:03:38;99525.03;;;18.37;100.00
48882;BME280;57063;51.406;-2.402;2022-09-09T06:06:06;99529.25;;;18.46;100.00
48882;BME280;57063;51.406;-2.402;2022-09-09T06:08:33;99523.72;;;18.33;100.00
48882;BME280;57063;51.406;-2.402;2022-09-09T06:11:07;99522.88;;;18.55;100.00
48882;BME280;57063;51.406;-2.402;2022-09-09T06:13:33;99536.56;;;18.52;100.00
48882;BME280;57063;51.406;-2.402;2022-09-09T06:15:58;99532.78;;;18.47;100.00
48882;BME280;57063;51.406;-2.402;2022-09-09T06:18:25;99529.16;;;18.62;100.00
48882;BME280;57063;51.406;-2.402;2022-09-09T06:20:58;99529.34;;;18.61;100.00
48882;BME280;57063;51.406;-2.402;2022-09-09T06:23:26;99538.19;;;18.53;100.00
48882;BME280;57063;51.406;-2.402;2022-09-09T06:25:59;99535.38;;;18.78;100.00
48882;BME280;57063;51.406;-2.402;2022-09-09T06:28:25;99538.25;;;18.45;100.00
48882;BME280;57063;51.406;-2.402;2022-09-09T06:30:57;99550.91;;;18.66;100.00
48882;BME280;57063;51.406;-2.402;2022-09-09T06:33:23;99552.31;;;18.77;100.00
48882;BME280;57063;51.406;-2.402;2022-09-09T06:35:53;99549.06;;;18.67;100.00
48882;BME280;57063;51.406;-2.402;2022-09-09T06:38:18;99552.28;;;18.85;100.00
48882;BME280;57063;51.406;-2.402;2022-09-09T06:40:51;99551.38;;;18.93;100.00
48882;BME280;57063;51.406;-2.402;2022-09-09T06:43:18;99560.44;;;19.21;100.00
48882;BME280;57063;51.406;-2.402;2022-09-09T06:45:58;99556.44;;;19.55;100.00
48882;BME280;57063;51.406;-2.402;2022-09-09T06:48:24;99558.66;;;19.81;100.00
48882;BME280;57063;51.406;-2.402;2022-09-09T06:50:59;99559.84;;;19.94;100.00
48882;BME280;57063;51.406;-2.402;2022-09-09T06:53:25;99560.75;;;20.01;100.00
48882;BME280;57063;51.406;-2.402;2022-09-09T06:55:51;99557.00;;;20.10;100.00
48882;BME280;57063;51.406;-2.402;2022-09-09T06:58:16;99551.88;;;20.30;100.00
48882;BME280;57063;51.406;-2.402;2022-09-09T07:00:42;99565.97;;;20.82;100.00
48882;BME280;57063;51.406;-2.402;2022-09-09T07:03:07;99556.25;;;20.74;100.00
48882;BME280;57063;51.406;-2.402;2022-09-09T07:05:32;99558.78;;;20.25;100.00
48882;BME280;57063;51.406;-2.402;2022-09-09T07:07:58;99565.44;;;19.99;100.00
48882;BME280;57063;51.406;-2.402;2022-09-09T07:10:24;99563.41;;;20.01;100.00
48882;BME280;57063;51.406;-2.402;2022-09-09T07:12:53;99572.47;;;20.21;100.00
48882;BME280;57063;51.406;-2.402;2022-09-09T07:15:19;99567.84;;;20.67;100.00
48882;BME280;57063;51.406;-2.402;2022-09-09T07:17:44;99567.16;;;21.01;100.00
48882;BME280;57063;51.406;-2.402;2022-09-09T07:20:10;99567.03;;;21.09;100.00
48882;BME280;57063;51.406;-2.402;2022-09-09T07:22:36;99571.09;;;21.33;100.00
48882;BME280;57063;51.406;-2.402;2022-09-09T07:25:02;99568.16;;;21.28;100.00
48882;BME280;57063;51.406;-2.402;2022-09-09T07:27:27;99572.31;;;21.31;100.00
48882;BME280;57063;51.406;-2.402;2022-09-09T07:29:53;99572.78;;;20.48;100.00
48882;BME280;57063;51.406;-2.402;2022-09-09T07:32:19;99567.41;;;20.85;100.00
48882;BME280;57063;51.406;-2.402;2022-09-09T07:34:45;99574.44;;;20.13;100.00
48882;BME280;57063;51.406;-2.402;2022-09-09T07:37:12;99576.44;;;20.47;100.00
48882;BME280;57063;51.406;-2.402;2022-09-09T07:39:39;99579.03;;;20.77;100.00
48882;BME280;57063;51.406;-2.402;2022-09-09T07:42:04;99573.06;;;21.88;100.00
48882;BME280;57063;51.406;-2.402;2022-09-09T07:44:30;99575.78;;;24.41;91.90
48882;BME280;57063;51.406;-2.402;2022-09-09T07:46:57;99576.13;;;24.06;88.98
48882;BME280;57063;51.406;-2.402;2022-09-09T07:49:23;99572.59;;;23.27;92.79
48882;BME280;57063;51.406;-2.402;2022-09-09T07:51:48;99574.47;;;24.12;91.28
48882;BME280;57063;51.406;-2.402;2022-09-09T07:54:16;99573.31;;;25.03;86.81
48882;BME280;57063;51.406;-2.402;2022-09-09T07:56:42;99579.91;;;25.32;81.90
48882;BME280;57063;51.406;-2.402;2022-09-09T07:59:08;99583.28;;;25.21;83.18
48882;BME280;57063;51.406;-2.402;2022-09-09T08:01:37;99575.03;;;26.03;82.21
48882;BME280;57063;51.406;-2.402;2022-09-09T08:04:07;99583.88;;;25.92;74.08
48882;BME280;57063;51.406;-2.402;2022-09-09T08:06:38;99591.88;;;23.96;83.23
48882;BME280;57063;51.406;-2.402;2022-09-09T08:09:05;99597.50;;;23.68;86.37
48882;BME280;57063;51.406;-2.402;2022-09-09T08:11:31;99601.84;;;23.49;86.67
48882;BME280;57063;51.406;-2.402;2022-09-09T08:13:58;99601.41;;;23.59;89.02
48882;BME280;57063;51.406;-2.402;2022-09-09T08:16:29;99604.91;;;26.14;74.24
48882;BME280;57063;51.406;-2.402;2022-09-09T08:18:55;99610.00;;;26.22;73.31
48882;BME280;57063;51.406;-2.402;2022-09-09T08:21:23;99605.75;;;23.40;84.45
48882;BME280;57063;51.406;-2.402;2022-09-09T08:23:51;99611.31;;;23.78;86.36
48882;BME280;57063;51.406;-2.402;2022-09-09T08:26:19;99615.88;;;23.11;85.29
48882;BME280;57063;51.406;-2.402;2022-09-09T08:28:52;99616.81;;;22.70;86.91
48882;BME280;57063;51.406;-2.402;2022-09-09T08:31:23;99625.53;;;23.25;88.97
48882;BME280;57063;51.406;-2.402;2022-09-09T08:33:49;99618.63;;;24.09;82.83
48882;BME280;57063;51.406;-2.402;2022-09-09T08:36:20;99627.00;;;23.34;86.78
48882;BME280;57063;51.406;-2.402;2022-09-09T08:38:51;99633.78;;;23.57;81.29
48882;BME280;57063;51.406;-2.402;2022-09-09T08:44:00;99635.56;;;22.22;88.59
48882;BME280;57063;51.406;-2.402;2022-09-09T08:46:36;99632.53;;;22.31;91.62
48882;BME280;57063;51.406;-2.402;2022-09-09T08:51:53;99639.19;;;21.72;94.15
48882;BME280;57063;51.406;-2.402;2022-09-09T08:54:20;99641.50;;;21.04;97.21
48882;BME280;57063;51.406;-2.402;2022-09-09T08:56:45;99650.75;;;20.87;99.81
48882;BME280;57063;51.406;-2.402;2022-09-09T08:59:14;99649.81;;;21.16;98.93
48882;BME280;57063;51.406;-2.402;2022-09-09T09:12:42;99671.28;;;21.29;100.00
48882;BME280;57063;51.406;-2.402;2022-09-09T09:15:16;99678.59;;;21.20;100.00
48882;BME280;57063;51.406;-2.402;2022-09-09T09:17:43;99682.34;;;21.26;98.08
48882;BME280;57063;51.406;-2.402;2022-09-09T09:20:14;99687.56;;;21.56;98.17
48882;BME280;57063;51.406;-2.402;2022-09-09T09:22:51;99692.97;;;21.19;99.27
48882;BME280;57063;51.406;-2.402;2022-09-09T09:25:27;99695.41;;;20.78;99.17
48882;BME280;57063;51.406;-2.402;2022-09-09T09:30:30;99699.13;;;21.63;98.78
48882;BME280;57063;51.406;-2.402;2022-09-09T09:33:03;99699.41;;;22.03;97.07
48882;BME280;57063;51.406;-2.402;2022-09-09T09:35:31;99705.47;;;22.18;93.79
48882;BME280;57063;51.406;-2.402;2022-09-09T09:37:56;99714.03;;;22.35;94.43
48882;BME280;57063;51.406;-2.402;2022-09-09T09:40:22;99718.59;;;22.13;97.12
48882;BME280;57063;51.406;-2.402;2022-09-09T09:42:57;99714.03;;;22.07;95.55
48882;BME280;57063;51.406;-2.402;2022-09-09T09:45:41;99728.06;;;21.59;96.51
48882;BME280;57063;51.406;-2.402;2022-09-09T09:48:11;99723.16;;;21.42;98.68
48882;BME280;57063;51.406;-2.402;2022-09-09T09:50:59;99730.94;;;21.15;99.46
48882;BME280;57063;51.406;-2.402;2022-09-09T09:53:27;99734.78;;;21.34;100.00
48882;BME280;57063;51.406;-2.402;2022-09-09T09:55:59;99738.47;;;20.75;100.00
48882;BME280;57063;51.406;-2.402;2022-09-09T09:58:26;99742.72;;;20.25;100.00
48882;BME280;57063;51.406;-2.402;2022-09-09T10:00:54;99743.25;;;20.65;100.00
48882;BME280;57063;51.406;-2.402;2022-09-09T10:03:27;99755.22;;;20.84;100.00
48882;BME280;57063;51.406;-2.402;2022-09-09T10:05:53;99750.50;;;20.86;100.00
48882;BME280;57063;51.406;-2.402;2022-09-09T10:08:20;99751.53;;;20.55;100.00
48882;BME280;57063;51.406;-2.402;2022-09-09T10:14:46;99762.00;;;20.71;100.00
48882;BME280;57063;51.406;-2.402;2022-09-09T10:17:10;99755.13;;;21.13;100.00
48882;BME280;57063;51.406;-2.402;2022-09-09T10:19:34;99763.28;;;20.90;100.00
48882;BME280;57063;51.406;-2.402;2022-09-09T10:22:18;99770.97;;;21.15;100.00
48882;BME280;57063;51.406;-2.402;2022-09-09T10:27:51;99775.00;;;21.47;100.00
48882;BME280;57063;51.406;-2.402;2022-09-09T10:30:22;99776.31;;;21.15;100.00
48882;BME280;57063;51.406;-2.402;2022-09-09T10:38:16;99771.53;;;21.32;98.34
48882;BME280;57063;51.406;-2.402;2022-09-09T10:46:09;99771.81;;;22.08;97.57
48882;BME280;57063;51.406;-2.402;2022-09-09T10:48:51;99778.31;;;22.55;95.15
48882;BME280;57063;51.406;-2.402;2022-09-09T10:51:23;99785.09;;;22.51;93.08
48882;BME280;57063;51.406;-2.402;2022-09-09T10:56:32;99785.50;;;22.96;93.71
48882;BME280;57063;51.406;-2.402;2022-09-09T11:01:39;99783.31;;;23.07;91.57
48882;BME280;57063;51.406;-2.402;2022-09-09T11:04:22;99789.22;;;22.54;92.56
48882;BME280;57063;51.406;-2.402;2022-09-09T11:06:52;99787.06;;;22.77;93.93
48882;BME280;57063;51.406;-2.402;2022-09-09T11:09:22;99787.34;;;23.64;90.78
48882;BME280;57063;51.406;-2.402;2022-09-09T11:11:55;99776.66;;;23.84;89.15
48882;BME280;57063;51.406;-2.402;2022-09-09T11:14:48;99771.69;;;25.88;80.78
48882;BME280;57063;51.406;-2.402;2022-09-09T11:17:26;99771.00;;;26.99;72.76
48882;BME280;57063;51.406;-2.402;2022-09-09T11:19:53;99771.25;;;26.79;66.48
48882;BME280;57063;51.406;-2.402;2022-09-09T11:33:20;99772.25;;;27.57;65.78
48882;BME280;57063;51.406;-2.402;2022-09-09T11:38:38;99779.03;;;27.17;68.31
48882;BME280;57063;51.406;-2.402;2022-09-09T11:41:07;99780.84;;;29.41;60.96
48882;BME280;57063;51.406;-2.402;2022-09-09T11:43:46;99780.78;;;28.19;63.24
48882;BME280;57063;51.406;-2.402;2022-09-09T11:46:13;99773.63;;;30.31;57.05
48882;BME280;57063;51.406;-2.402;2022-09-09T11:48:44;99777.75;;;28.92;59.94
48882;BME280;57063;51.406;-2.402;2022-09-09T11:51:27;99775.50;;;28.13;61.71
48882;BME280;57063;51.406;-2.402;2022-09-09T11:53:56;99775.44;;;29.58;57.97
48882;BME280;57063;51.406;-2.402;2022-09-09T11:56:26;99781.47;;;32.13;54.19
48882;BME280;57063;51.406;-2.402;2022-09-09T11:58:58;99785.19;;;30.88;52.27
48882;BME280;57063;51.406;-2.402;2022-09-09T12:06:52;99779.25;;;30.08;55.57
48882;BME280;57063;51.406;-2.402;2022-09-09T12:10:19;99776.31;;;28.01;59.38
48882;BME280;57063;51.406;-2.402;2022-09-09T12:12:20;99775.47;;;26.31;64.45
48882;BME280;57063;51.406;-2.402;2022-09-09T12:14:58;99796.69;;;26.64;66.41
48882;BME280;57063;51.406;-2.402;2022-09-09T12:17:25;99792.44;;;26.50;66.47
48882;BME280;57063;51.406;-2.402;2022-09-09T12:20:22;99781.41;;;25.96;70.06
48882;BME280;57063;51.406;-2.402;2022-09-09T12:25:46;99780.47;;;26.09;67.85
48882;BME280;57063;51.406;-2.402;2022-09-09T12:28:20;99782.88;;;27.09;66.45
48882;BME280;57063;51.406;-2.402;2022-09-09T12:33:34;99765.09;;;27.50;66.12
48882;BME280;57063;51.406;-2.402;2022-09-09T12:36:01;99766.13;;;28.15;64.00
48882;BME280;57063;51.406;-2.402;2022-09-09T12:38:40;99770.97;;;26.68;65.86
48882;BME280;57063;51.406;-2.402;2022-09-09T12:41:18;99769.88;;;27.48;65.16
48882;BME280;57063;51.406;-2.402;2022-09-09T12:43:44;99778.34;;;26.73;67.67
48882;BME280;57063;51.406;-2.402;2022-09-09T12:46:19;99775.91;;;26.09;69.53
48882;BME280;57063;51.406;-2.402;2022-09-09T12:48:46;99773.84;;;25.80;71.22
48882;BME280;57063;51.406;-2.402;2022-09-09T12:51:32;99776.13;;;26.08;70.23
48882;BME280;57063;51.406;-2.402;2022-09-09T12:53:59;99785.94;;;24.93;77.95
48882;BME280;57063;51.406;-2.402;2022-09-09T12:56:27;99790.97;;;24.70;77.29
48882;BME280;57063;51.406;-2.402;2022-09-09T12:58:56;99793.47;;;25.17;78.54
48882;BME280;57063;51.406;-2.402;2022-09-09T13:01:28;99796.47;;;25.40;77.01
48882;BME280;57063;51.406;-2.402;2022-09-09T13:03:55;99788.75;;;24.47;77.81
48882;BME280;57063;51.406;-2.402;2022-09-09T13:06:24;99796.44;;;24.17;81.19
48882;BME280;57063;51.406;-2.402;2022-09-09T13:08:50;99797.38;;;24.76;79.96
48882;BME280;57063;51.406;-2.402;2022-09-09T13:11:20;99802.59;;;24.44;81.72
48882;BME280;57063;51.406;-2.402;2022-09-09T13:13:51;99803.84;;;24.41;83.09
48882;BME280;57063;51.406;-2.402;2022-09-09T13:16:19;99807.13;;;23.56;90.04
48882;BME280;57063;51.406;-2.402;2022-09-09T13:18:44;99802.22;;;24.13;88.24
48882;BME280;57063;51.406;-2.402;2022-09-09T13:21:10;99803.59;;;25.28;87.16
48882;BME280;57063;51.406;-2.402;2022-09-09T13:23:36;99809.78;;;25.92;79.85
48882;BME280;57063;51.406;-2.402;2022-09-09T13:26:05;99804.59;;;26.59;76.28
48882;BME280;57063;51.406;-2.402;2022-09-09T13:28:33;99811.78;;;25.40;82.15
48882;BME280;57063;51.406;-2.402;2022-09-09T13:31:02;99805.00;;;24.79;83.84
48882;BME280;57063;51.406;-2.402;2022-09-09T13:33:38;99806.84;;;24.85;84.61
48882;BME280;57063;51.406;-2.402;2022-09-09T13:36:08;99804.00;;;25.18;83.47
48882;BME280;57063;51.406;-2.402;2022-09-09T13:38:37;99807.00;;;24.97;84.02
48882;BME280;57063;51.406;-2.402;2022-09-09T13:41:05;99801.94;;;25.84;80.09
48882;BME280;57063;51.406;-2.402;2022-09-09T13:43:36;99805.53;;;25.78;81.48
48882;BME280;57063;51.406;-2.402;2022-09-09T13:46:06;99802.78;;;25.91;80.05
48882;BME280;57063;51.406;-2.402;2022-09-09T13:51:39;99798.53;;;25.70;81.83
48882;BME280;57063;51.406;-2.402;2022-09-09T13:54:06;99800.78;;;25.03;84.53
48882;BME280;57063;51.406;-2.402;2022-09-09T13:56:33;99808.50;;;25.95;80.34
48882;BME280;57063;51.406;-2.402;2022-09-09T13:58:58;99804.38;;;26.42;77.11
48882;BME280;57063;51.406;-2.402;2022-09-09T14:01:24;99801.81;;;26.29;78.33
48882;BME280;57063;51.406;-2.402;2022-09-09T14:03:49;99796.72;;;26.58;77.93
48882;BME280;57063;51.406;-2.402;2022-09-09T14:06:15;99801.63;;;25.73;79.86
48882;BME280;57063;51.406;-2.402;2022-09-09T14:08:41;99806.94;;;25.80;79.98
48882;BME280;57063;51.406;-2.402;2022-09-09T14:11:11;99799.94;;;25.79;80.43
48882;BME280;57063;51.406;-2.402;2022-09-09T14:13:37;99803.41;;;26.11;78.14
48882;BME280;57063;51.406;-2.402;2022-09-09T14:16:02;99802.97;;;26.15;77.12
48882;BME280;57063;51.406;-2.402;2022-09-09T14:18:28;99809.25;;;25.77;77.12
48882;BME280;57063;51.406;-2.402;2022-09-09T14:20:54;99812.00;;;25.31;79.66
48882;BME280;57063;51.406;-2.402;2022-09-09T14:23:19;99810.06;;;25.07;80.82
48882;BME280;57063;51.406;-2.402;2022-09-09T14:25:47;99812.75;;;25.07;80.18
48882;BME280;57063;51.406;-2.402;2022-09-09T14:28:13;99806.94;;;25.10;82.90
48882;BME280;57063;51.406;-2.402;2022-09-09T14:30:40;99811.72;;;25.46;78.65
48882;BME280;57063;51.406;-2.402;2022-09-09T14:33:07;99822.44;;;25.08;80.28
48882;BME280;57063;51.406;-2.402;2022-09-09T14:35:33;99806.16;;;25.41;80.74
48882;BME280;57063;51.406;-2.402;2022-09-09T14:37:59;99815.34;;;25.65;79.12
48882;BME280;57063;51.406;-2.402;2022-09-09T14:40:25;99823.66;;;25.89;78.16
48882;BME280;57063;51.406;-2.402;2022-09-09T14:42:50;99812.38;;;25.42;77.09
48882;BME280;57063;51.406;-2.402;2022-09-09T14:45:16;99818.16;;;25.00;80.15
48882;BME280;57063;51.406;-2.402;2022-09-09T14:47:41;99824.69;;;24.39;83.88